sensor_id;sensor_type;location;lat;lon;timestamp;P1;durP1;ratioP1;P2;durP2;ratioP2
20245;SDS011;10281;54.406;18.556;2023-02-08T00:00:33;13.40;;;9.50;;
20245;SDS011;10281;54.406;18.556;2023-02-08T00:02:59;12.87;;;9.37;;
20245;SDS011;10281;54.406;18.556;2023-02-08T00:05:26;14.30;;;9.87;;
20245;SDS011;10281;54.406;18.556;2023-02-08T00:07:52;11.63;;;9.30;;
20245;SDS011;10281;54.406;18.556;2023-02-08T00:10:19;14.40;;;9.40;;
20245;SDS011;10281;54.406;18.556;2023-02-08T00:12:46;15.20;;;8.97;;
20245;SDS011;10281;54.406;18.556;2023-02-08T00:15:12;14.27;;;9.37;;
20245;SDS011;10281;54.406;18.556;2023-02-08T00:17:39;13.80;;;9.40;;
20245;SDS011;10281;54.406;18.556;2023-02-08T00:20:06;12.00;;;8.73;;
20245;SDS011;10281;54.406;18.556;2023-02-08T00:22:34;11.70;;;8.70;;
20245;SDS011;10281;54.406;18.556;2023-02-08T00:25:01;19.80;;;13.27;;
20245;SDS011;10281;54.406;18.556;2023-02-08T00:27:28;12.07;;;9.23;;
20245;SDS011;10281;54.406;18.556;2023-02-08T00:29:54;11.37;;;8.50;;
20245;SDS011;10281;54.406;18.556;2023-02-08T00:32:21;11.37;;;8.07;;
20245;SDS011;10281;54.406;18.556;2023-02-08T00:34:47;11.67;;;8.00;;
20245;SDS011;10281;54.406;18.556;2023-02-08T00:37:14;13.13;;;8.20;;
20245;SDS011;10281;54.406;18.556;2023-02-08T00:39:41;12.30;;;7.77;;
20245;SDS011;10281;54.406;18.556;2023-02-08T00:42:08;10.47;;;7.57;;
20245;SDS011;10281;54.406;18.556;2023-02-08T00:44:35;9.53;;;7.13;;
20245;SDS011;10281;54.406;18.556;2023-02-08T00:47:01;10.73;;;7.70;;
20245;SDS011;10281;54.406;18.556;2023-02-08T00:49:28;10.20;;;7.37;;
20245;SDS011;10281;54.406;18.556;2023-02-08T00:51:55;10.67;;;7.43;;
20245;SDS011;10281;54.406;18.556;2023-02-08T00:54:21;7.93;;;6.90;;
20245;SDS011;10281;54.406;18.556;2023-02-08T00:56:48;9.00;;;6.80;;
20245;SDS011;10281;54.406;18.556;2023-02-08T00:59:14;11.10;;;7.07;;
20245;SDS011;10281;54.406;18.556;2023-02-08T01:01:41;11.20;;;7.33;;
20245;SDS011;10281;54.406;18.556;2023-02-08T01:04:08;9.07;;;7.17;;
20245;SDS011;10281;54.406;18.556;2023-02-08T01:06:35;9.20;;;7.20;;
20245;SDS011;10281;54.406;18.556;2023-02-08T01:09:02;8.77;;;6.93;;
20245;SDS011;10281;54.406;18.556;2023-02-08T01:11:28;10.23;;;7.20;;
20245;SDS011;10281;54.406;18.556;2023-02-08T01:13:55;9.30;;;6.80;;
20245;SDS011;10281;54.406;18.556;2023-02-08T01:16:24;11.03;;;7.53;;
20245;SDS011;10281;54.406;18.556;2023-02-08T01:18:53;10.10;;;7.57;;
20245;SDS011;10281;54.406;18.556;2023-02-08T01:21:23;10.00;;;7.50;;
20245;SDS011;10281;54.406;18.556;2023-02-08T01:23:52;11.07;;;7.57;;
20245;SDS011;10281;54.406;18.556;2023-02-08T01:26:19;9.03;;;6.60;;
20245;SDS011;10281;54.406;18.556;2023-02-08T01:28:47;8.97;;;7.00;;
20245;SDS011;10281;54.406;18.556;2023-02-08T01:31:17;11.47;;;7.67;;
20245;SDS011;10281;54.406;18.556;2023-02-08T01:33:45;9.83;;;6.60;;
20245;SDS011;10281;54.406;18.556;2023-02-08T01:36:14;7.90;;;5.93;;
20245;SDS011;10281;54.406;18.556;2023-02-08T01:38:41;8.10;;;6.50;;
20245;SDS011;10281;54.406;18.556;2023-02-08T01:41:41;8.50;;;6.27;;
20245;SDS011;10281;54.406;18.556;2023-02-08T01:44:00;8.27;;;6.57;;
20245;SDS011;10281;54.406;18.556;2023-02-08T01:46:33;10.10;;;6.27;;
20245;SDS011;10281;54.406;18.556;2023-02-08T01:49:05;7.33;;;6.30;;
20245;SDS011;10281;54.406;18.556;2023-02-08T01:51:34;7.77;;;6.07;;
20245;SDS011;10281;54.406;18.556;2023-02-08T01:54:05;9.40;;;7.27;;
20245;SDS011;10281;54.406;18.556;2023-02-08T01:56:35;11.03;;;6.90;;
20245;SDS011;10281;54.406;18.556;2023-02-08T01:59:05;10.13;;;6.40;;
20245;SDS011;10281;54.406;18.556;2023-02-08T02:01:35;12.00;;;7.33;;
20245;SDS011;10281;54.406;18.556;2023-02-08T02:04:04;10.27;;;7.23;;
20245;SDS011;10281;54.406;18.556;2023-02-08T02:06:32;10.10;;;6.97;;
20245;SDS011;10281;54.406;18.556;2023-02-08T02:09:04;11.43;;;7.43;;
20245;SDS011;10281;54.406;18.556;2023-02-08T02:11:34;11.87;;;7.90;;
20245;SDS011;10281;54.406;18.556;2023-02-08T02:14:02;12.40;;;7.67;;
20245;SDS011;10281;54.406;18.556;2023-02-08T02:16:29;10.77;;;7.83;;
20245;SDS011;10281;54.406;18.556;2023-02-08T02:18:57;11.47;;;7.97;;
20245;SDS011;10281;54.406;18.556;2023-02-08T02:21:31;11.10;;;8.00;;
20245;SDS011;10281;54.406;18.556;2023-02-08T02:24:10;11.37;;;7.93;;
20245;SDS011;10281;54.406;18.556;2023-02-08T02:27:50;14.00;;;8.10;;
20245;SDS011;10281;54.406;18.556;2023-02-08T02:33:26;13.30;;;8.73;;
20245;SDS011;10281;54.406;18.556;2023-02-08T02:35:29;15.33;;;9.23;;
20245;SDS011;10281;54.406;18.556;2023-02-08T02:41:12;14.23;;;9.67;;
20245;SDS011;10281;54.406;18.556;2023-02-08T02:43:45;16.63;;;9.53;;
20245;SDS011;10281;54.406;18.556;2023-02-08T02:46:21;14.07;;;9.20;;
20245;SDS011;10281;54.406;18.556;2023-02-08T02:54:32;15.60;;;9.87;;
20245;SDS011;10281;54.406;18.556;2023-02-08T02:57:02;17.13;;;9.93;;
20245;SDS011;10281;54.406;18.556;2023-02-08T02:59:33;17.47;;;11.10;;
20245;SDS011;10281;54.406;18.556;2023-02-08T03:02:02;15.17;;;9.93;;
20245;SDS011;10281;54.406;18.556;2023-02-08T03:07:36;21.73;;;11.60;;
20245;SDS011;10281;54.406;18.556;2023-02-08T03:10:20;19.63;;;11.23;;
20245;SDS011;10281;54.406;18.556;2023-02-08T03:13:24;20.83;;;10.73;;
20245;SDS011;10281;54.406;18.556;2023-02-08T03:15:58;20.70;;;11.20;;
20245;SDS011;10281;54.406;18.556;2023-02-08T03:18:45;18.23;;;11.47;;
20245;SDS011;10281;54.406;18.556;2023-02-08T03:21:22;19.53;;;11.27;;
20245;SDS011;10281;54.406;18.556;2023-02-08T03:23:54;21.40;;;11.83;;
20245;SDS011;10281;54.406;18.556;2023-02-08T03:26:35;19.77;;;11.83;;
20245;SDS011;10281;54.406;18.556;2023-02-08T03:29:11;20.43;;;12.10;;
20245;SDS011;10281;54.406;18.556;2023-02-08T03:31:49;22.00;;;12.87;;
20245;SDS011;10281;54.406;18.556;2023-02-08T03:34:18;17.90;;;11.50;;
20245;SDS011;10281;54.406;18.556;2023-02-08T03:36:51;18.50;;;11.43;;
20245;SDS011;10281;54.406;18.556;2023-02-08T03:39:22;19.37;;;11.30;;
20245;SDS011;10281;54.406;18.556;2023-02-08T03:41:52;20.00;;;11.80;;
20245;SDS011;10281;54.406;18.556;2023-02-08T03:44:31;21.10;;;12.20;;
20245;SDS011;10281;54.406;18.556;2023-02-08T03:47:04;19.77;;;12.00;;
20245;SDS011;10281;54.406;18.556;2023-02-08T03:49:33;20.00;;;12.97;;
20245;SDS011;10281;54.406;18.556;2023-02-08T03:52:03;20.17;;;12.27;;
20245;SDS011;10281;54.406;18.556;2023-02-08T03:54:34;18.13;;;12.10;;
20245;SDS011;10281;54.406;18.556;2023-02-08T03:57:04;21.87;;;12.60;;
20245;SDS011;10281;54.406;18.556;2023-02-08T03:59:51;21.83;;;11.83;;
20245;SDS011;10281;54.406;18.556;2023-02-08T04:02:22;20.13;;;11.07;;
20245;SDS011;10281;54.406;18.556;2023-02-08T04:04:52;24.47;;;12.23;;
20245;SDS011;10281;54.406;18.556;2023-02-08T04:07:20;21.63;;;12.23;;
20245;SDS011;10281;54.406;18.556;2023-02-08T04:09:47;23.20;;;12.67;;
20245;SDS011;10281;54.406;18.556;2023-02-08T04:12:14;20.37;;;12.50;;
20245;SDS011;10281;54.406;18.556;2023-02-08T04:14:41;20.87;;;12.90;;
20245;SDS011;10281;54.406;18.556;2023-02-08T04:17:07;19.13;;;12.37;;
20245;SDS011;10281;54.406;18.556;2023-02-08T04:19:34;19.83;;;12.50;;
20245;SDS011;10281;54.406;18.556;2023-02-08T04:22:00;22.63;;;12.83;;
20245;SDS011;10281;54.406;18.556;2023-02-08T04:24:27;21.07;;;12.07;;
20245;SDS011;10281;54.406;18.556;2023-02-08T04:26:53;22.10;;;13.30;;
20245;SDS011;10281;54.406;18.556;2023-02-08T04:29:20;25.27;;;12.43;;
20245;SDS011;10281;54.406;18.556;2023-02-08T04:31:47;20.10;;;12.67;;
20245;SDS011;10281;54.406;18.556;2023-02-08T04:34:13;24.47;;;13.43;;
20245;SDS011;10281;54.406;18.556;2023-02-08T04:36:40;26.07;;;14.30;;
20245;SDS011;10281;54.406;18.556;2023-02-08T04:39:07;21.67;;;12.67;;
20245;SDS011;10281;54.406;18.556;2023-02-08T04:41:34;19.90;;;12.00;;
20245;SDS011;10281;54.406;18.556;2023-02-08T04:44:00;20.87;;;12.73;;
20245;SDS011;10281;54.406;18.556;2023-02-08T04:46:27;21.27;;;13.10;;
20245;SDS011;10281;54.406;18.556;2023-02-08T04:48:54;20.43;;;12.77;;
20245;SDS011;10281;54.406;18.556;2023-02-08T04:51:22;21.77;;;13.00;;
20245;SDS011;10281;54.406;18.556;2023-02-08T04:53:48;20.43;;;13.13;;
20245;SDS011;10281;54.406;18.556;2023-02-08T04:56:15;20.60;;;12.33;;
20245;SDS011;10281;54.406;18.556;2023-02-08T04:58:41;22.30;;;12.10;;
20245;SDS011;10281;54.406;18.556;2023-02-08T05:01:08;18.90;;;12.40;;
20245;SDS011;10281;54.406;18.556;2023-02-08T05:03:36;19.23;;;12.20;;
20245;SDS011;10281;54.406;18.556;2023-02-08T05:06:03;21.07;;;12.60;;
20245;SDS011;10281;54.406;18.556;2023-02-08T05:08:29;20.53;;;12.23;;
20245;SDS011;10281;54.406;18.556;2023-02-08T05:10:56;23.73;;;12.23;;
20245;SDS011;10281;54.406;18.556;2023-02-08T05:13:22;23.87;;;12.90;;
20245;SDS011;10281;54.406;18.556;2023-02-08T05:15:49;20.70;;;12.03;;
20245;SDS011;10281;54.406;18.556;2023-02-08T05:18:16;24.17;;;14.87;;
20245;SDS011;10281;54.406;18.556;2023-02-08T05:20:42;20.93;;;12.10;;
20245;SDS011;10281;54.406;18.556;2023-02-08T05:23:10;19.87;;;11.93;;
20245;SDS011;10281;54.406;18.556;2023-02-08T05:25:37;19.77;;;12.10;;
20245;SDS011;10281;54.406;18.556;2023-02-08T05:28:05;21.40;;;12.43;;
20245;SDS011;10281;54.406;18.556;2023-02-08T05:30:31;20.77;;;12.10;;
20245;SDS011;10281;54.406;18.556;2023-02-08T05:32:58;20.63;;;11.60;;
20245;SDS011;10281;54.406;18.556;2023-02-08T05:35:24;17.37;;;11.17;;
20245;SDS011;10281;54.406;18.556;2023-02-08T05:37:51;22.07;;;12.57;;
20245;SDS011;10281;54.406;18.556;2023-02-08T05:40:18;19.50;;;11.70;;
20245;SDS011;10281;54.406;18.556;2023-02-08T05:42:44;19.77;;;11.67;;
20245;SDS011;10281;54.406;18.556;2023-02-08T05:45:12;16.93;;;11.43;;
20245;SDS011;10281;54.406;18.556;2023-02-08T05:47:39;20.70;;;11.13;;
20245;SDS011;10281;54.406;18.556;2023-02-08T05:50:06;21.33;;;11.90;;
20245;SDS011;10281;54.406;18.556;2023-02-08T05:52:33;21.57;;;11.37;;
20245;SDS011;10281;54.406;18.556;2023-02-08T05:55:00;22.77;;;11.60;;
20245;SDS011;10281;54.406;18.556;2023-02-08T05:57:27;18.90;;;11.53;;
20245;SDS011;10281;54.406;18.556;2023-02-08T05:59:54;20.87;;;11.47;;
20245;SDS011;10281;54.406;18.556;2023-02-08T06:02:20;21.03;;;11.30;;
20245;SDS011;10281;54.406;18.556;2023-02-08T06:04:47;18.03;;;11.13;;
20245;SDS011;10281;54.406;18.556;2023-02-08T06:07:14;18.30;;;11.10;;
20245;SDS011;10281;54.406;18.556;2023-02-08T06:09:40;17.97;;;11.93;;
20245;SDS011;10281;54.406;18.556;2023-02-08T06:12:07;18.50;;;11.50;;
20245;SDS011;10281;54.406;18.556;2023-02-08T06:14:34;16.37;;;11.07;;
20245;SDS011;10281;54.406;18.556;2023-02-08T06:17:00;15.90;;;10.80;;
20245;SDS011;10281;54.406;18.556;2023-02-08T06:19:27;18.00;;;10.90;;
20245;SDS011;10281;54.406;18.556;2023-02-08T06:21:53;19.43;;;11.87;;
20245;SDS011;10281;54.406;18.556;2023-02-08T06:24:20;14.97;;;10.77;;
20245;SDS011;10281;54.406;18.556;2023-02-08T06:26:47;16.10;;;10.80;;
20245;SDS011;10281;54.406;18.556;2023-02-08T06:29:14;17.07;;;10.43;;
20245;SDS011;10281;54.406;18.556;2023-02-08T06:31:41;19.37;;;11.17;;
20245;SDS011;10281;54.406;18.556;2023-02-08T06:34:07;17.67;;;11.10;;
20245;SDS011;10281;54.406;18.556;2023-02-08T06:36:34;14.83;;;10.43;;
20245;SDS011;10281;54.406;18.556;2023-02-08T06:39:01;15.90;;;10.10;;
20245;SDS011;10281;54.406;18.556;2023-02-08T06:41:28;15.27;;;10.37;;
20245;SDS011;10281;54.406;18.556;2023-02-08T06:43:54;16.77;;;10.37;;
20245;SDS011;10281;54.406;18.556;2023-02-08T06:46:23;17.23;;;10.53;;
20245;SDS011;10281;54.406;18.556;2023-02-08T06:48:49;17.43;;;10.37;;
20245;SDS011;10281;54.406;18.556;2023-02-08T06:51:16;14.50;;;10.23;;
20245;SDS011;10281;54.406;18.556;2023-02-08T06:53:43;15.93;;;9.57;;
20245;SDS011;10281;54.406;18.556;2023-02-08T06:56:09;16.57;;;10.47;;
20245;SDS011;10281;54.406;18.556;2023-02-08T06:58:36;15.50;;;9.70;;
20245;SDS011;10281;54.406;18.556;2023-02-08T07:01:02;16.30;;;10.13;;
20245;SDS011;10281;54.406;18.556;2023-02-08T07:03:29;15.73;;;10.20;;
20245;SDS011;10281;54.406;18.556;2023-02-08T07:05:56;14.20;;;10.10;;
20245;SDS011;10281;54.406;18.556;2023-02-08T07:08:22;15.03;;;9.80;;
20245;SDS011;10281;54.406;18.556;2023-02-08T07:10:49;16.10;;;10.27;;
20245;SDS011;10281;54.406;18.556;2023-02-08T07:13:15;14.63;;;9.17;;
20245;SDS011;10281;54.406;18.556;2023-02-08T07:15:42;16.97;;;9.60;;
20245;SDS011;10281;54.406;18.556;2023-02-08T07:18:09;12.97;;;8.73;;
20245;SDS011;10281;54.406;18.556;2023-02-08T07:20:35;14.27;;;9.70;;
20245;SDS011;10281;54.406;18.556;2023-02-08T07:23:02;14.00;;;9.43;;
20245;SDS011;10281;54.406;18.556;2023-02-08T07:25:28;12.87;;;8.27;;
20245;SDS011;10281;54.406;18.556;2023-02-08T07:27:55;15.03;;;9.43;;
20245;SDS011;10281;54.406;18.556;2023-02-08T07:30:22;15.20;;;8.87;;
20245;SDS011;10281;54.406;18.556;2023-02-08T07:32:48;14.30;;;8.57;;
20245;SDS011;10281;54.406;18.556;2023-02-08T07:35:15;14.30;;;8.63;;
20245;SDS011;10281;54.406;18.556;2023-02-08T07:37:41;12.57;;;8.70;;
20245;SDS011;10281;54.406;18.556;2023-02-08T07:40:08;15.50;;;8.57;;
20245;SDS011;10281;54.406;18.556;2023-02-08T07:42:36;16.30;;;9.27;;
20245;SDS011;10281;54.406;18.556;2023-02-08T07:45:03;17.40;;;9.23;;
20245;SDS011;10281;54.406;18.556;2023-02-08T07:47:29;13.57;;;9.30;;
20245;SDS011;10281;54.406;18.556;2023-02-08T07:49:56;14.47;;;9.53;;
20245;SDS011;10281;54.406;18.556;2023-02-08T07:52:23;14.47;;;8.80;;
20245;SDS011;10281;54.406;18.556;2023-02-08T07:54:49;15.17;;;8.90;;
20245;SDS011;10281;54.406;18.556;2023-02-08T07:57:16;17.13;;;9.67;;
20245;SDS011;10281;54.406;18.556;2023-02-08T07:59:44;12.47;;;8.77;;
20245;SDS011;10281;54.406;18.556;2023-02-08T08:02:13;14.33;;;9.10;;
20245;SDS011;10281;54.406;18.556;2023-02-08T08:04:41;12.90;;;8.47;;
20245;SDS011;10281;54.406;18.556;2023-02-08T08:07:08;13.73;;;9.33;;
20245;SDS011;10281;54.406;18.556;2023-02-08T08:09:34;16.57;;;9.23;;
20245;SDS011;10281;54.406;18.556;2023-02-08T08:12:01;15.77;;;9.10;;
20245;SDS011;10281;54.406;18.556;2023-02-08T08:14:28;19.17;;;9.27;;
20245;SDS011;10281;54.406;18.556;2023-02-08T08:16:55;14.87;;;9.53;;
20245;SDS011;10281;54.406;18.556;2023-02-08T08:19:21;18.13;;;9.60;;
20245;SDS011;10281;54.406;18.556;2023-02-08T08:21:48;15.10;;;8.83;;
20245;SDS011;10281;54.406;18.556;2023-02-08T08:24:15;17.17;;;9.53;;
20245;SDS011;10281;54.406;18.556;2023-02-08T08:26:41;14.30;;;9.60;;
20245;SDS011;10281;54.406;18.556;2023-02-08T08:29:08;19.43;;;10.40;;
20245;SDS011;10281;54.406;18.556;2023-02-08T08:31:37;16.50;;;9.97;;
20245;SDS011;10281;54.406;18.556;2023-02-08T08:34:03;18.30;;;10.87;;
20245;SDS011;10281;54.406;18.556;2023-02-08T08:36:30;16.57;;;10.60;;
20245;SDS011;10281;54.406;18.556;2023-02-08T08:38:57;24.13;;;13.77;;
20245;SDS011;10281;54.406;18.556;2023-02-08T08:41:24;19.57;;;11.97;;
20245;SDS011;10281;54.406;18.556;2023-02-08T08:43:52;30.60;;;16.90;;
20245;SDS011;10281;54.406;18.556;2023-02-08T08:46:19;46.57;;;21.60;;
20245;SDS011;10281;54.406;18.556;2023-02-08T08:48:46;30.70;;;15.77;;
20245;SDS011;10281;54.406;18.556;2023-02-08T08:51:12;24.87;;;13.93;;
20245;SDS011;10281;54.406;18.556;2023-02-08T08:53:40;27.40;;;13.70;;
20245;SDS011;10281;54.406;18.556;2023-02-08T08:56:06;18.93;;;11.93;;
20245;SDS011;10281;54.406;18.556;2023-02-08T08:58:33;20.87;;;11.83;;
20245;SDS011;10281;54.406;18.556;2023-02-08T09:01:00;17.17;;;11.37;;
20245;SDS011;10281;54.406;18.556;2023-02-08T09:03:27;18.80;;;11.50;;
20245;SDS011;10281;54.406;18.556;2023-02-08T09:05:54;17.17;;;10.77;;
20245;SDS011;10281;54.406;18.556;2023-02-08T09:08:21;17.97;;;12.00;;
20245;SDS011;10281;54.406;18.556;2023-02-08T09:10:48;18.37;;;12.30;;
20245;SDS011;10281;54.406;18.556;2023-02-08T09:13:15;22.00;;;12.47;;
20245;SDS011;10281;54.406;18.556;2023-02-08T09:15:44;19.80;;;12.13;;
20245;SDS011;10281;54.406;18.556;2023-02-08T09:18:10;19.97;;;12.93;;
20245;SDS011;10281;54.406;18.556;2023-02-08T09:20:37;20.10;;;12.90;;
20245;SDS011;10281;54.406;18.556;2023-02-08T09:23:04;22.23;;;12.33;;
20245;SDS011;10281;54.406;18.556;2023-02-08T09:25:31;19.03;;;13.13;;
20245;SDS011;10281;54.406;18.556;2023-02-08T09:27:57;21.03;;;13.13;;
20245;SDS011;10281;54.406;18.556;2023-02-08T09:30:24;20.77;;;13.17;;
20245;SDS011;10281;54.406;18.556;2023-02-08T09:32:51;21.93;;;13.90;;
20245;SDS011;10281;54.406;18.556;2023-02-08T09:35:17;23.27;;;14.07;;
20245;SDS011;10281;54.406;18.556;2023-02-08T09:37:44;21.87;;;14.07;;
20245;SDS011;10281;54.406;18.556;2023-02-08T09:40:18;21.90;;;13.90;;
20245;SDS011;10281;54.406;18.556;2023-02-08T09:42:54;28.37;;;16.13;;
20245;SDS011;10281;54.406;18.556;2023-02-08T09:45:32;23.07;;;13.97;;
20245;SDS011;10281;54.406;18.556;2023-02-08T09:48:17;21.53;;;14.73;;
20245;SDS011;10281;54.406;18.556;2023-02-08T09:50:51;24.03;;;15.53;;
20245;SDS011;10281;54.406;18.556;2023-02-08T09:53:29;23.00;;;14.70;;
20245;SDS011;10281;54.406;18.556;2023-02-08T09:56:03;24.50;;;15.73;;
20245;SDS011;10281;54.406;18.556;2023-02-08T09:58:36;23.80;;;15.20;;
20245;SDS011;10281;54.406;18.556;2023-02-08T10:01:12;24.27;;;14.63;;
20245;SDS011;10281;54.406;18.556;2023-02-08T10:03:40;25.67;;;17.33;;
20245;SDS011;10281;54.406;18.556;2023-02-08T10:06:12;27.20;;;17.27;;
20245;SDS011;10281;54.406;18.556;2023-02-08T10:08:41;26.73;;;15.57;;
20245;SDS011;10281;54.406;18.556;2023-02-08T10:14:37;25.90;;;16.80;;
20245;SDS011;10281;54.406;18.556;2023-02-08T10:17:08;26.30;;;17.17;;
20245;SDS011;10281;54.406;18.556;2023-02-08T10:22:35;29.67;;;17.90;;
20245;SDS011;10281;54.406;18.556;2023-02-08T10:25:17;29.10;;;18.70;;
20245;SDS011;10281;54.406;18.556;2023-02-08T10:30:28;30.67;;;17.20;;
20245;SDS011;10281;54.406;18.556;2023-02-08T10:33:02;26.90;;;16.97;;
20245;SDS011;10281;54.406;18.556;2023-02-08T10:35:35;24.50;;;17.50;;
20245;SDS011;10281;54.406;18.556;2023-02-08T10:40:51;29.30;;;17.27;;
20245;SDS011;10281;54.406;18.556;2023-02-08T10:43:23;26.20;;;16.77;;
20245;SDS011;10281;54.406;18.556;2023-02-08T10:48:34;26.37;;;17.57;;
20245;SDS011;10281;54.406;18.556;2023-02-08T10:51:08;29.10;;;17.43;;
20245;SDS011;10281;54.406;18.556;2023-02-08T10:53:37;27.77;;;17.37;;
20245;SDS011;10281;54.406;18.556;2023-02-08T10:56:04;29.23;;;19.20;;
20245;SDS011;10281;54.406;18.556;2023-02-08T10:58:31;30.67;;;19.33;;
20245;SDS011;10281;54.406;18.556;2023-02-08T11:20:18;28.73;;;18.87;;
20245;SDS011;10281;54.406;18.556;2023-02-08T11:22:40;27.60;;;18.20;;
20245;SDS011;10281;54.406;18.556;2023-02-08T11:25:11;25.10;;;17.97;;
20245;SDS011;10281;54.406;18.556;2023-02-08T11:27:41;27.30;;;17.90;;
20245;SDS011;10281;54.406;18.556;2023-02-08T11:30:17;26.53;;;17.97;;
20245;SDS011;10281;54.406;18.556;2023-02-08T11:32:46;29.90;;;18.60;;
20245;SDS011;10281;54.406;18.556;2023-02-08T11:35:19;27.77;;;18.43;;
20245;SDS011;10281;54.406;18.556;2023-02-08T11:37:48;24.90;;;17.37;;
20245;SDS011;10281;54.406;18.556;2023-02-08T11:40:20;26.63;;;17.50;;
20245;SDS011;10281;54.406;18.556;2023-02-08T11:42:49;28.43;;;18.13;;
20245;SDS011;10281;54.406;18.556;2023-02-08T11:45:20;27.47;;;17.50;;
20245;SDS011;10281;54.406;18.556;2023-02-08T11:47:49;27.70;;;17.73;;
20245;SDS011;10281;54.406;18.556;2023-02-08T11:50:23;27.60;;;18.40;;
20245;SDS011;10281;54.406;18.556;2023-02-08T11:52:54;28.40;;;19.07;;
20245;SDS011;10281;54.406;18.556;2023-02-08T11:55:25;27.60;;;17.93;;
20245;SDS011;10281;54.406;18.556;2023-02-08T11:57:59;24.70;;;17.60;;
20245;SDS011;10281;54.406;18.556;2023-02-08T12:00:30;27.00;;;18.97;;
20245;SDS011;10281;54.406;18.556;2023-02-08T12:03:01;32.47;;;19.83;;
20245;SDS011;10281;54.406;18.556;2023-02-08T12:05:43;27.93;;;19.50;;
20245;SDS011;10281;54.406;18.556;2023-02-08T12:08:14;25.30;;;17.77;;
20245;SDS011;10281;54.406;18.556;2023-02-08T12:10:49;27.87;;;19.27;;
20245;SDS011;10281;54.406;18.556;2023-02-08T12:13:19;26.63;;;18.57;;
20245;SDS011;10281;54.406;18.556;2023-02-08T12:16:11;30.00;;;19.07;;
20245;SDS011;10281;54.406;18.556;2023-02-08T12:22:03;25.93;;;18.33;;
20245;SDS011;10281;54.406;18.556;2023-02-08T12:24:36;26.37;;;18.13;;
20245;SDS011;10281;54.406;18.556;2023-02-08T12:27:57;25.80;;;17.20;;
20245;SDS011;10281;54.406;18.556;2023-02-08T12:30:11;26.30;;;18.63;;
20245;SDS011;10281;54.406;18.556;2023-02-08T12:33:02;27.63;;;19.87;;
20245;SDS011;10281;54.406;18.556;2023-02-08T12:38:22;24.30;;;18.03;;
20245;SDS011;10281;54.406;18.556;2023-02-08T12:41:07;26.03;;;17.77;;
20245;SDS011;10281;54.406;18.556;2023-02-08T12:43:40;27.00;;;17.33;;
20245;SDS011;10281;54.406;18.556;2023-02-08T12:46:14;25.20;;;17.37;;
20245;SDS011;10281;54.406;18.556;2023-02-08T12:48:55;25.93;;;16.57;;
20245;SDS011;10281;54.406;18.556;2023-02-08T12:54:45;25.00;;;16.67;;
20245;SDS011;10281;54.406;18.556;2023-02-08T12:57:15;24.30;;;16.90;;
20245;SDS011;10281;54.406;18.556;2023-02-08T12:59:46;22.63;;;17.03;;
20245;SDS011;10281;54.406;18.556;2023-02-08T13:02:18;26.03;;;16.40;;
20245;SDS011;10281;54.406;18.556;2023-02-08T13:04:51;24.23;;;17.37;;
20245;SDS011;10281;54.406;18.556;2023-02-08T13:07:20;25.40;;;17.03;;
20245;SDS011;10281;54.406;18.556;2023-02-08T13:09:55;22.47;;;16.70;;
20245;SDS011;10281;54.406;18.556;2023-02-08T13:12:40;22.03;;;15.70;;
20245;SDS011;10281;54.406;18.556;2023-02-08T13:15:13;25.50;;;16.30;;
20245;SDS011;10281;54.406;18.556;2023-02-08T13:17:46;26.00;;;17.80;;
20245;SDS011;10281;54.406;18.556;2023-02-08T13:20:22;26.00;;;17.13;;
20245;SDS011;10281;54.406;18.556;2023-02-08T13:23:09;25.70;;;16.87;;
20245;SDS011;10281;54.406;18.556;2023-02-08T13:25:39;23.00;;;16.93;;
20245;SDS011;10281;54.406;18.556;2023-02-08T13:28:12;25.93;;;17.53;;
20245;SDS011;10281;54.406;18.556;2023-02-08T13:30:38;27.77;;;17.90;;
20245;SDS011;10281;54.406;18.556;2023-02-08T13:33:11;25.33;;;16.80;;
20245;SDS011;10281;54.406;18.556;2023-02-08T13:35:50;26.63;;;17.90;;
20245;SDS011;10281;54.406;18.556;2023-02-08T13:38:26;28.73;;;18.10;;
20245;SDS011;10281;54.406;18.556;2023-02-08T13:41:00;27.83;;;17.93;;
20245;SDS011;10281;54.406;18.556;2023-02-08T13:43:34;28.40;;;18.63;;
20245;SDS011;10281;54.406;18.556;2023-02-08T13:46:03;26.80;;;17.80;;
20245;SDS011;10281;54.406;18.556;2023-02-08T13:51:41;28.53;;;18.17;;
20245;SDS011;10281;54.406;18.556;2023-02-08T13:56:39;30.00;;;19.73;;
20245;SDS011;10281;54.406;18.556;2023-02-08T14:02:27;29.67;;;18.57;;
20245;SDS011;10281;54.406;18.556;2023-02-08T14:04:50;28.63;;;18.93;;
20245;SDS011;10281;54.406;18.556;2023-02-08T14:10:06;32.77;;;20.63;;
20245;SDS011;10281;54.406;18.556;2023-02-08T14:12:42;30.60;;;19.30;;
20245;SDS011;10281;54.406;18.556;2023-02-08T14:15:29;30.70;;;18.97;;
20245;SDS011;10281;54.406;18.556;2023-02-08T14:18:01;32.57;;;19.97;;
20245;SDS011;10281;54.406;18.556;2023-02-08T14:20:30;34.23;;;20.17;;
20245;SDS011;10281;54.406;18.556;2023-02-08T14:23:01;31.23;;;20.57;;
20245;SDS011;10281;54.406;18.556;2023-02-08T14:28:05;34.10;;;19.97;;
20245;SDS011;10281;54.406;18.556;2023-02-08T14:30:35;32.43;;;20.30;;
20245;SDS011;10281;54.406;18.556;2023-02-08T14:33:11;32.63;;;20.93;;
20245;SDS011;10281;54.406;18.556;2023-02-08T14:35:42;35.43;;;19.77;;
20245;SDS011;10281;54.406;18.556;2023-02-08T14:39:23;32.43;;;20.17;;
20245;SDS011;10281;54.406;18.556;2023-02-08T14:41:07;32.93;;;22.43;;
20245;SDS011;10281;54.406;18.556;2023-02-08T14:43:36;36.43;;;21.17;;
20245;SDS011;10281;54.406;18.556;2023-02-08T14:48:46;39.47;;;23.53;;
20245;SDS011;10281;54.406;18.556;2023-02-08T14:51:15;45.63;;;26.27;;
20245;SDS011;10281;54.406;18.556;2023-02-08T14:53:48;38.93;;;24.10;;
20245;SDS011;10281;54.406;18.556;2023-02-08T14:56:20;41.07;;;23.97;;
20245;SDS011;10281;54.406;18.556;2023-02-08T14:58:52;37.50;;;23.10;;
20245;SDS011;10281;54.406;18.556;2023-02-08T15:01:26;39.10;;;23.47;;
20245;SDS011;10281;54.406;18.556;2023-02-08T15:03:52;36.87;;;22.87;;
20245;SDS011;10281;54.406;18.556;2023-02-08T15:06:30;39.27;;;22.57;;
20245;SDS011;10281;54.406;18.556;2023-02-08T15:08:59;36.50;;;23.30;;
20245;SDS011;10281;54.406;18.556;2023-02-08T15:11:29;37.93;;;22.00;;
20245;SDS011;10281;54.406;18.556;2023-02-08T15:13:59;44.30;;;27.73;;
20245;SDS011;10281;54.406;18.556;2023-02-08T15:16:31;41.03;;;23.07;;
20245;SDS011;10281;54.406;18.556;2023-02-08T15:19:02;43.47;;;25.10;;
20245;SDS011;10281;54.406;18.556;2023-02-08T15:21:30;53.43;;;28.17;;
20245;SDS011;10281;54.406;18.556;2023-02-08T15:24:03;51.70;;;26.50;;
20245;SDS011;10281;54.406;18.556;2023-02-08T15:26:32;41.43;;;24.87;;
20245;SDS011;10281;54.406;18.556;2023-02-08T15:28:59;39.87;;;23.53;;
20245;SDS011;10281;54.406;18.556;2023-02-08T15:31:29;41.37;;;24.53;;
20245;SDS011;10281;54.406;18.556;2023-02-08T15:33:57;39.63;;;23.40;;
20245;SDS011;10281;54.406;18.556;2023-02-08T15:36:28;55.17;;;27.63;;
20245;SDS011;10281;54.406;18.556;2023-02-08T15:38:58;46.43;;;25.13;;
20245;SDS011;10281;54.406;18.556;2023-02-08T15:41:28;44.10;;;24.83;;
20245;SDS011;10281;54.406;18.556;2023-02-08T15:44:31;48.37;;;25.57;;